Time;durP1;ratioP1;P1;durP2;ratioP2;P2;SDS_P1;SDS_P2;PMS_P1;PMS_P2;Temp;Humidity;BMP_temperature;BMP_pressure;BME280_temperature;BME280_humidity;BME280_pressure;Samples;Min_cycle;Max_cycle;Signal;HPM_P1;HPM_P2
2022/12/04 00:01:19;;;;;;;32.97;17.57;;;2.50;99.90;;;;;;5059502;28;20508;-80
2022/12/04 00:03:46;;;;;;;31.13;16.57;;;2.40;99.90;;;;;;5048275;28;20539;-81
2022/12/04 00:06:15;;;;;;;31.57;15.90;;;2.30;99.90;;;;;;5050815;28;20458;-81
2022/12/04 00:08:43;;;;;;;33.40;16.50;;;2.30;99.90;;;;;;5042897;28;20455;-81
2022/12/04 00:11:11;;;;;;;30.15;16.95;;;2.30;99.90;;;;;;5044780;28;20228;-81
2022/12/04 00:13:39;;;;;;;36.97;18.73;;;2.30;99.90;;;;;;5054676;28;20233;-81
2022/12/04 00:16:11;;;;;;;29.50;16.47;;;2.30;99.90;;;;;;5057851;28;20886;-81
2022/12/04 00:18:38;;;;;;;30.30;17.10;;;2.40;99.90;;;;;;5048726;28;20451;-81
2022/12/04 00:21:05;;;;;;;33.80;17.40;;;2.40;99.90;;;;;;5054164;28;20519;-81
2022/12/04 00:23:32;;;;;;;32.78;16.55;;;2.30;99.90;;;;;;5041530;28;20818;-80
2022/12/04 00:26:00;;;;;;;36.30;18.40;;;2.30;99.90;;;;;;5047349;28;21747;-81
2022/12/04 00:28:27;;;;;;;31.07;16.90;;;2.30;99.90;;;;;;5041581;28;20940;-81
2022/12/04 00:30:54;;;;;;;30.63;16.47;;;2.30;99.90;;;;;;5053604;28;20456;-81
2022/12/04 00:33:23;;;;;;;35.23;16.60;;;2.40;99.90;;;;;;5044168;28;20524;-81
2022/12/04 00:35:57;;;;;;;28.27;16.07;;;2.40;99.90;;;;;;5054212;28;20997;-81
2022/12/04 00:38:24;;;;;;;30.33;16.60;;;2.40;99.90;;;;;;5054300;28;20953;-80
2022/12/04 00:40:51;;;;;;;29.50;15.97;;;2.40;99.90;;;;;;5048040;28;20439;-81
2022/12/04 00:43:18;;;;;;;26.40;15.30;;;2.50;99.90;;;;;;5043537;28;20903;-81
2022/12/04 00:45:44;;;;;;;30.60;15.80;;;2.50;99.90;;;;;;5043100;28;20482;-82
2022/12/04 00:48:12;;;;;;;32.10;16.10;;;2.50;99.90;;;;;;5050919;28;20531;-81
2022/12/04 00:50:40;;;;;;;34.25;17.23;;;2.40;99.90;;;;;;5051888;28;20543;-81
2022/12/04 00:53:07;;;;;;;31.00;16.80;;;2.40;99.90;;;;;;5045972;28;20312;-81
2022/12/04 00:55:34;;;;;;;31.83;18.20;;;2.40;99.90;;;;;;5043641;28;21024;-81
2022/12/04 00:58:00;;;;;;;28.20;15.93;;;2.40;99.90;;;;;;5042856;28;20455;-80
2022/12/04 01:00:27;;;;;;;28.67;15.43;;;2.40;99.90;;;;;;5043941;28;20524;-81
2022/12/04 01:02:54;;;;;;;30.03;16.17;;;2.40;99.90;;;;;;5044391;28;20890;-81
2022/12/04 01:05:21;;;;;;;30.07;15.93;;;2.40;99.90;;;;;;5056788;28;20567;-80
2022/12/04 01:07:49;;;;;;;32.20;16.40;;;2.40;99.90;;;;;;5043288;28;20457;-79
2022/12/04 01:10:16;;;;;;;26.50;14.70;;;2.50;99.90;;;;;;5042728;28;20904;-81
2022/12/04 01:12:43;;;;;;;28.60;15.00;;;2.50;99.90;;;;;;5050060;28;20458;-81
2022/12/04 01:15:10;;;;;;;25.83;15.30;;;2.50;99.90;;;;;;5049518;28;20525;-81
2022/12/04 01:17:37;;;;;;;29.00;16.13;;;2.50;99.90;;;;;;5054877;28;20504;-80
2022/12/04 01:20:05;;;;;;;30.40;16.07;;;2.40;99.90;;;;;;5054303;28;20495;-82
2022/12/04 01:22:32;;;;;;;29.83;16.00;;;2.30;99.90;;;;;;5051991;28;20535;-82
2022/12/04 01:25:00;;;;;;;27.97;15.57;;;2.30;99.90;;;;;;5058787;28;20468;-82
2022/12/04 01:27:27;;;;;;;29.73;15.83;;;2.40;99.90;;;;;;5050113;28;21024;-82
2022/12/04 01:29:54;;;;;;;29.80;15.90;;;2.30;99.90;;;;;;5062587;28;20452;-82
2022/12/04 01:32:21;;;;;;;27.00;14.87;;;2.30;99.90;;;;;;5049705;28;20855;-81
2022/12/04 01:34:48;;;;;;;32.50;16.07;;;2.30;99.90;;;;;;5043402;28;20556;-82
2022/12/04 01:37:14;;;;;;;30.43;15.87;;;2.30;99.90;;;;;;5055248;28;20448;-82
2022/12/04 01:39:41;;;;;;;30.10;16.00;;;2.20;99.90;;;;;;5062327;28;21024;-82
2022/12/04 01:42:13;;;;;;;29.40;17.60;;;2.30;99.90;;;;;;5050588;28;20522;-82
2022/12/04 01:44:42;;;;;;;24.20;13.80;;;2.30;99.90;;;;;;5043348;28;20477;-81
2022/12/04 01:47:10;;;;;;;25.97;14.23;;;2.30;99.90;;;;;;5043727;28;20528;-81
2022/12/04 01:49:41;;;;;;;28.30;15.27;;;2.30;99.90;;;;;;5042493;28;20472;-81
2022/12/04 01:52:12;;;;;;;30.23;14.53;;;2.30;99.90;;;;;;5046532;28;20566;-82
2022/12/04 01:54:43;;;;;;;31.67;16.97;;;2.30;99.90;;;;;;5047592;28;20836;-81
2022/12/04 01:57:16;;;;;;;28.20;15.83;;;2.20;99.90;;;;;;5043249;28;20548;-82
2022/12/04 01:59:47;;;;;;;32.53;16.13;;;2.30;99.90;;;;;;5041534;28;20449;-82
2022/12/04 02:02:17;;;;;;;33.13;15.17;;;2.30;99.90;;;;;;5058330;28;20431;-83
2022/12/04 02:04:44;;;;;;;25.43;14.03;;;2.20;99.90;;;;;;5062317;28;20500;-82
2022/12/04 02:07:11;;;;;;;27.13;15.50;;;2.20;99.90;;;;;;5058242;28;20580;-81
2022/12/04 02:09:40;;;;;;;33.53;18.63;;;2.30;99.90;;;;;;5061642;28;20454;-83
2022/12/04 02:12:19;;;;;;;30.17;16.37;;;2.20;99.90;;;;;;5056637;28;20498;-82
2022/12/04 02:14:56;;;;;;;26.97;14.23;;;2.30;99.90;;;;;;5060590;28;20442;-82
2022/12/04 02:17:28;;;;;;;28.30;14.93;;;2.30;99.90;;;;;;5045384;28;20519;-81
2022/12/04 02:20:14;;;;;;;27.97;15.30;;;2.20;99.90;;;;;;5040908;28;20874;-82
2022/12/04 02:23:16;;;;;;;30.23;15.67;;;2.30;99.90;;;;;;5057450;28;21042;-82
2022/12/04 02:25:53;;;;;;;31.47;16.10;;;2.20;99.90;;;;;;5060780;28;20562;-82
2022/12/04 02:28:25;;;;;;;27.65;15.60;;;2.20;99.90;;;;;;5040258;28;20476;-81
2022/12/04 02:30:57;;;;;;;32.00;17.23;;;2.20;99.90;;;;;;5041512;28;20213;-81
2022/12/04 02:33:29;;;;;;;29.43;15.20;;;2.10;99.90;;;;;;5040887;28;20936;-80
2022/12/04 02:36:04;;;;;;;25.00;13.77;;;2.20;99.90;;;;;;5050935;28;20566;-80
2022/12/04 02:38:36;;;;;;;27.70;14.03;;;2.20;99.90;;;;;;5069501;28;20459;-80
2022/12/04 02:41:08;;;;;;;29.70;15.37;;;2.20;99.90;;;;;;5064956;28;20511;-80
2022/12/04 02:43:41;;;;;;;26.23;13.77;;;2.10;99.90;;;;;;5048107;28;20483;-80
2022/12/04 02:46:13;;;;;;;29.33;15.40;;;2.10;99.90;;;;;;5047423;28;20476;-80
2022/12/04 02:48:43;;;;;;;25.87;15.50;;;2.10;99.90;;;;;;5051704;28;20514;-82
2022/12/04 02:51:13;;;;;;;30.40;14.57;;;2.00;99.90;;;;;;5038055;28;20475;-82
2022/12/04 02:53:45;;;;;;;29.70;15.90;;;2.10;99.90;;;;;;5054927;28;20834;-80
2022/12/04 02:56:16;;;;;;;26.97;14.93;;;2.20;99.90;;;;;;5058007;28;20475;-82
2022/12/04 02:58:48;;;;;;;29.93;15.03;;;2.10;99.90;;;;;;5042051;28;20480;-82
2022/12/04 03:01:20;;;;;;;26.83;13.87;;;2.10;99.90;;;;;;5039825;28;20453;-82
2022/12/04 03:03:52;;;;;;;24.90;14.83;;;2.10;99.90;;;;;;5053795;28;20964;-81
2022/12/04 03:06:20;;;;;;;25.57;13.63;;;2.20;99.90;;;;;;5058408;28;20471;-82
2022/12/04 03:08:51;;;;;;;27.57;14.50;;;2.20;99.90;;;;;;5041904;28;20587;-81
2022/12/04 03:11:18;;;;;;;25.90;12.23;;;2.20;99.90;;;;;;5037228;28;20532;-81
2022/12/04 03:13:51;;;;;;;28.20;14.27;;;2.20;99.90;;;;;;5052101;28;20890;-82
2022/12/04 03:16:24;;;;;;;27.23;15.73;;;2.20;99.90;;;;;;5054667;28;20479;-82
2022/12/04 03:18:56;;;;;;;27.93;14.80;;;2.20;99.90;;;;;;5057889;28;20542;-82
2022/12/04 03:21:27;;;;;;;23.87;13.63;;;2.20;99.90;;;;;;5056136;28;20448;-80
2022/12/04 03:23:59;;;;;;;20.38;11.65;;;2.30;99.90;;;;;;5038057;28;20455;-82
2022/12/04 03:26:31;;;;;;;23.80;12.07;;;2.20;99.90;;;;;;5038623;28;20241;-82
2022/12/04 03:29:05;;;;;;;21.05;13.98;;;2.20;99.90;;;;;;5055276;28;20419;-82
2022/12/04 03:31:39;;;;;;;26.10;14.20;;;2.10;99.90;;;;;;5038377;28;20235;-80
2022/12/04 03:34:07;;;;;;;25.40;14.43;;;2.10;99.90;;;;;;5057674;28;20439;-81
2022/12/04 03:36:37;;;;;;;24.07;13.30;;;2.10;99.90;;;;;;5056411;28;20879;-81
2022/12/04 03:39:12;;;;;;;22.58;11.77;;;2.10;99.90;;;;;;5037436;28;20532;-81
2022/12/04 03:41:48;;;;;;;20.30;12.60;;;2.10;99.90;;;;;;5038126;28;20209;-81
2022/12/04 03:44:22;;;;;;;24.97;12.20;;;2.10;99.90;;;;;;5056883;28;20797;-80
2022/12/04 03:46:54;;;;;;;22.97;11.57;;;2.10;99.90;;;;;;5048225;28;20448;-82
2022/12/04 03:49:27;;;;;;;24.38;12.32;;;2.20;99.90;;;;;;5036847;28;20461;-82
2022/12/04 03:51:58;;;;;;;20.40;11.83;;;2.10;99.90;;;;;;5039018;28;20202;-83
2022/12/04 03:54:30;;;;;;;20.67;12.43;;;2.20;99.90;;;;;;5039856;28;20469;-83
2022/12/04 03:57:02;;;;;;;24.07;12.90;;;2.20;99.90;;;;;;5041940;28;20265;-82
2022/12/04 03:59:36;;;;;;;21.47;11.33;;;2.20;99.90;;;;;;5045912;28;20449;-82
2022/12/04 04:02:08;;;;;;;19.67;10.90;;;2.20;99.90;;;;;;5043266;28;20520;-82
2022/12/04 04:04:37;;;;;;;22.30;11.13;;;2.20;99.90;;;;;;5062411;28;20486;-82
2022/12/04 04:07:10;;;;;;;19.90;11.60;;;2.10;99.90;;;;;;5062768;28;20437;-82
2022/12/04 04:09:40;;;;;;;18.50;10.63;;;2.20;99.90;;;;;;5053824;28;20456;-81
2022/12/04 04:12:11;;;;;;;21.20;11.10;;;2.20;99.90;;;;;;5061746;28;20545;-82
2022/12/04 04:26:04;;;;;;;21.67;10.95;;;2.20;99.90;;;;;;5039075;28;20251;-82
2022/12/04 04:28:34;;;;;;;21.20;11.57;;;2.20;99.90;;;;;;5059420;28;20646;-81
2022/12/04 04:31:10;;;;;;;20.00;11.30;;;2.20;99.90;;;;;;5055949;28;20983;-80
2022/12/04 04:33:47;;;;;;;21.83;12.20;;;2.30;99.90;;;;;;5040635;28;20459;-82
2022/12/04 04:36:21;;;;;;;22.67;11.07;;;2.20;99.90;;;;;;5040077;28;20551;-82
2022/12/04 04:38:58;;;;;;;27.88;13.80;;;2.20;99.90;;;;;;5040527;28;20448;-81
2022/12/04 04:41:32;;;;;;;24.37;11.97;;;2.20;99.90;;;;;;5050772;28;20204;-80
2022/12/04 04:44:07;;;;;;;19.33;11.00;;;2.30;99.90;;;;;;5019707;28;20468;-81
2022/12/04 04:46:40;;;;;;;27.85;12.95;;;2.30;99.90;;;;;;5051417;23;20518;-84
2022/12/04 04:49:11;;;;;;;23.10;11.53;;;2.30;99.90;;;;;;5026839;28;20213;-83
2022/12/04 04:51:38;;;;;;;22.52;11.88;;;2.30;99.90;;;;;;5014581;28;20442;-83
2022/12/04 04:54:08;;;;;;;22.63;11.77;;;2.40;99.90;;;;;;5015992;28;20231;-84
2022/12/04 04:56:40;;;;;;;20.47;11.83;;;2.20;99.90;;;;;;5015435;28;20479;-82
2022/12/04 04:59:07;;;;;;;22.60;11.38;;;2.30;99.90;;;;;;5016448;28;20897;-83
2022/12/04 05:01:36;;;;;;;23.90;10.65;;;2.30;99.90;;;;;;5015682;28;20298;-83
2022/12/04 05:04:03;;;;;;;25.60;12.57;;;2.30;99.90;;;;;;5016128;28;20635;-83
2022/12/04 05:06:30;;;;;;;20.20;12.70;;;2.30;99.90;;;;;;5015451;28;21003;-83
2022/12/04 05:08:57;;;;;;;18.75;10.68;;;2.30;99.90;;;;;;5014901;28;20310;-84
2022/12/04 05:11:24;;;;;;;23.80;12.27;;;2.30;99.90;;;;;;5014874;28;20294;-84
2022/12/04 05:13:51;;;;;;;24.70;13.10;;;2.30;99.90;;;;;;5014385;28;20474;-83
2022/12/04 05:16:18;;;;;;;23.50;12.40;;;2.30;99.90;;;;;;5029191;28;20462;-85
2022/12/04 05:21:27;;;;;;;23.17;12.43;;;2.30;99.90;;;;;;5034807;28;20441;-84
2022/12/04 05:23:54;;;;;;;20.60;11.87;;;2.30;99.90;;;;;;5014899;28;20424;-82
2022/12/04 05:26:21;;;;;;;22.90;12.17;;;2.30;99.90;;;;;;5014952;28;20480;-83
2022/12/04 05:28:48;;;;;;;22.33;11.63;;;2.30;99.90;;;;;;5013972;28;20973;-83
2022/12/04 05:31:14;;;;;;;24.23;12.93;;;2.30;99.90;;;;;;5014523;28;20548;-84
2022/12/04 05:33:41;;;;;;;18.70;11.20;;;2.40;99.90;;;;;;5014960;28;20492;-84
2022/12/04 05:36:12;;;;;;;18.50;11.40;;;2.40;99.90;;;;;;5014663;28;20229;-83
2022/12/04 05:38:39;;;;;;;25.53;13.20;;;2.50;99.90;;;;;;5015104;28;20207;-83
2022/12/04 05:41:07;;;;;;;23.83;12.00;;;2.50;99.90;;;;;;5014862;28;20465;-84
2022/12/04 05:43:34;;;;;;;25.33;12.60;;;2.50;99.90;;;;;;5014873;28;20540;-84
2022/12/04 05:46:01;;;;;;;21.02;11.00;;;2.50;99.90;;;;;;5014325;28;20486;-83
2022/12/04 05:48:28;;;;;;;19.37;11.30;;;2.50;99.90;;;;;;5013408;28;20202;-84
2022/12/04 05:50:55;;;;;;;18.75;11.18;;;2.50;99.90;;;;;;5014684;28;20948;-84
2022/12/04 05:53:23;;;;;;;22.30;11.33;;;2.40;99.90;;;;;;5014182;28;20226;-84
2022/12/04 05:55:58;;;;;;;20.40;11.30;;;2.40;99.90;;;;;;5014434;28;20553;-84
2022/12/04 05:58:25;;;;;;;21.30;11.50;;;2.40;99.90;;;;;;5013960;28;20700;-82
2022/12/04 06:00:52;;;;;;;21.87;11.70;;;2.40;99.90;;;;;;5014969;28;20466;-85
2022/12/04 06:03:19;;;;;;;23.70;11.55;;;2.50;99.90;;;;;;5016792;28;20462;-85
2022/12/04 06:05:46;;;;;;;18.17;12.45;;;2.40;99.90;;;;;;5020861;28;20872;-83
2022/12/04 06:08:13;;;;;;;16.60;11.27;;;2.30;99.90;;;;;;5019979;28;20203;-83
2022/12/04 06:10:41;;;;;;;18.90;11.23;;;2.30;99.90;;;;;;4996770;28;20457;-83
2022/12/04 06:13:08;;;;;;;20.53;11.07;;;2.30;99.90;;;;;;5000858;28;20553;-84
2022/12/04 06:15:38;;;;;;;18.30;10.83;;;2.20;99.90;;;;;;5015157;28;20473;-82
2022/12/04 06:18:05;;;;;;;21.73;10.83;;;2.30;99.90;;;;;;5015243;28;20446;-84
2022/12/04 06:20:32;;;;;;;18.77;10.40;;;2.30;99.90;;;;;;5015440;28;20453;-84
2022/12/04 06:22:58;;;;;;;19.60;9.47;;;2.20;99.90;;;;;;5017524;28;20195;-83
2022/12/04 06:25:25;;;;;;;22.83;11.00;;;2.30;99.90;;;;;;5021138;28;20549;-83
2022/12/04 06:27:53;;;;;;;20.57;11.60;;;2.30;99.90;;;;;;5021874;28;20835;-83
2022/12/04 06:30:20;;;;;;;21.38;12.27;;;2.30;99.90;;;;;;5021840;28;20464;-83
2022/12/04 06:32:47;;;;;;;22.50;11.70;;;2.30;99.90;;;;;;5018717;28;20226;-82
2022/12/04 06:35:14;;;;;;;16.10;9.37;;;2.30;99.90;;;;;;5014513;28;20460;-82
2022/12/04 06:37:41;;;;;;;16.33;9.97;;;2.40;99.90;;;;;;5014364;28;20544;-82
2022/12/04 06:40:09;;;;;;;14.97;9.73;;;2.30;99.90;;;;;;5014699;28;20453;-83
2022/12/04 06:42:35;;;;;;;17.67;9.83;;;2.40;99.90;;;;;;5018354;28;20467;-83
2022/12/04 06:45:05;;;;;;;17.20;10.17;;;2.40;99.90;;;;;;5015399;28;20485;-83
2022/12/04 06:47:33;;;;;;;20.23;10.97;;;2.30;99.90;;;;;;5014684;28;20568;-84
2022/12/04 06:50:00;;;;;;;17.57;10.07;;;2.20;99.90;;;;;;5014968;28;20822;-81
2022/12/04 06:52:27;;;;;;;14.87;11.13;;;2.10;99.90;;;;;;5031936;28;20473;-83
2022/12/04 06:54:54;;;;;;;20.33;10.00;;;2.20;99.90;;;;;;5036077;28;20517;-84
2022/12/04 06:57:20;;;;;;;20.30;10.07;;;2.20;99.90;;;;;;5035667;28;20489;-83
2022/12/04 06:59:47;;;;;;;18.87;10.73;;;2.30;99.90;;;;;;5036238;28;20449;-84
2022/12/04 07:02:15;;;;;;;20.97;11.57;;;2.20;99.90;;;;;;5035982;28;20477;-84
2022/12/04 07:04:42;;;;;;;15.90;9.30;;;2.20;99.90;;;;;;5035054;28;20538;-84
2022/12/04 07:07:09;;;;;;;17.88;10.23;;;2.10;99.90;;;;;;5035099;28;20479;-84
2022/12/04 07:09:36;;;;;;;22.30;11.50;;;2.20;99.90;;;;;;5025893;28;20213;-84
2022/12/04 07:12:03;;;;;;;19.27;9.87;;;2.10;99.90;;;;;;5014689;28;20485;-84
2022/12/04 07:14:31;;;;;;;15.30;10.17;;;2.20;99.90;;;;;;5016118;28;20518;-84
2022/12/04 07:16:58;;;;;;;17.77;9.60;;;2.20;99.90;;;;;;5016998;28;20477;-84
2022/12/04 07:19:26;;;;;;;25.43;12.30;;;2.20;99.90;;;;;;5015904;28;20450;-85
2022/12/04 07:21:53;;;;;;;14.40;10.40;;;2.20;99.90;;;;;;5023293;28;20453;-84
2022/12/04 07:24:20;;;;;;;15.52;9.10;;;2.20;99.90;;;;;;5013821;28;20875;-84
2022/12/04 07:26:46;;;;;;;17.33;11.00;;;2.20;99.90;;;;;;5020044;28;20230;-83
2022/12/04 07:29:16;;;;;;;16.97;10.17;;;2.30;99.90;;;;;;5016652;28;20452;-84
2022/12/04 07:31:44;;;;;;;15.87;9.67;;;2.20;99.90;;;;;;5037974;28;20486;-84
2022/12/04 07:34:10;;;;;;;19.60;10.50;;;2.30;99.90;;;;;;5040095;28;20492;-84
2022/12/04 07:36:39;;;;;;;16.37;10.60;;;2.30;99.90;;;;;;5030379;28;20456;-83
2022/12/04 07:39:06;;;;;;;21.38;11.23;;;2.30;99.90;;;;;;5014525;28;20441;-83
2022/12/04 07:41:33;;;;;;;18.07;11.70;;;2.30;99.90;;;;;;5020125;28;20274;-84
2022/12/04 07:44:00;;;;;;;18.73;11.87;;;2.30;99.90;;;;;;5018534;28;20515;-83
2022/12/04 07:46:29;;;;;;;14.50;9.23;;;2.40;99.90;;;;;;5017523;28;20580;-83
2022/12/04 07:48:58;;;;;;;17.93;10.70;;;2.40;99.90;;;;;;5018627;28;20552;-84
2022/12/04 07:51:27;;;;;;;17.43;10.87;;;2.40;99.90;;;;;;5016211;28;20552;-84
2022/12/04 07:53:56;;;;;;;17.83;10.63;;;2.50;99.90;;;;;;5016606;28;20478;-84
2022/12/04 07:56:23;;;;;;;17.50;10.52;;;2.50;99.90;;;;;;5019153;28;20477;-85
2022/12/04 07:58:50;;;;;;;15.67;10.13;;;2.50;99.90;;;;;;5019467;28;20656;-83
2022/12/04 08:01:19;;;;;;;18.27;10.03;;;2.60;99.90;;;;;;5017029;28;20461;-82
2022/12/04 08:03:47;;;;;;;16.30;10.60;;;2.60;99.90;;;;;;5018426;28;20449;-82
2022/12/04 08:06:14;;;;;;;15.93;10.77;;;2.50;99.90;;;;;;5021195;28;20473;-81
2022/12/04 08:08:41;;;;;;;16.33;10.03;;;2.60;99.90;;;;;;5023340;28;20458;-82
2022/12/04 08:11:11;;;;;;;19.10;12.23;;;2.50;99.90;;;;;;5020414;28;20445;-82
2022/12/04 08:13:38;;;;;;;17.80;10.50;;;2.50;99.90;;;;;;5023174;28;20571;-83
2022/12/04 08:16:07;;;;;;;16.37;10.47;;;2.50;99.90;;;;;;5012248;28;20477;-84
2022/12/04 08:18:34;;;;;;;15.83;9.60;;;2.50;99.90;;;;;;5020408;28;20940;-85
2022/12/04 08:21:05;;;;;;;17.80;10.53;;;2.50;99.90;;;;;;5017094;28;20450;-82
2022/12/04 08:23:33;;;;;;;14.33;9.00;;;2.60;99.90;;;;;;5017674;28;21005;-84
2022/12/04 08:26:00;;;;;;;16.65;10.30;;;2.60;99.90;;;;;;5018233;28;21039;-83
2022/12/04 08:28:29;;;;;;;15.10;9.93;;;2.50;99.90;;;;;;5020228;28;20207;-83
2022/12/04 08:31:01;;;;;;;16.13;9.88;;;2.50;99.90;;;;;;5022119;28;20541;-84
2022/12/04 08:33:28;;;;;;;16.50;10.40;;;2.50;99.90;;;;;;5017648;28;20223;-83
2022/12/04 08:35:55;;;;;;;16.00;10.77;;;2.60;99.90;;;;;;5016428;28;21028;-84
2022/12/04 08:38:22;;;;;;;17.57;10.50;;;2.70;99.90;;;;;;5017242;28;20456;-84
2022/12/04 08:40:49;;;;;;;17.07;10.13;;;2.70;99.90;;;;;;5017567;28;20484;-83
2022/12/04 08:43:15;;;;;;;14.30;9.13;;;2.70;99.90;;;;;;5016240;28;20503;-84
2022/12/04 08:45:44;;;;;;;14.90;9.40;;;2.70;99.90;;;;;;5015958;28;20485;-84
2022/12/04 08:48:10;;;;;;;18.10;10.67;;;2.80;99.90;;;;;;5014838;28;20493;-84
2022/12/04 08:50:37;;;;;;;16.30;9.73;;;2.80;99.90;;;;;;5015591;28;20453;-83
2022/12/04 08:53:04;;;;;;;14.87;9.23;;;2.70;99.90;;;;;;5018680;28;20482;-84
2022/12/04 08:55:31;;;;;;;19.02;11.70;;;2.70;99.90;;;;;;5029541;28;20484;-84
2022/12/04 08:57:58;;;;;;;16.37;10.47;;;2.70;99.90;;;;;;5017654;28;20234;-84
2022/12/04 09:00:26;;;;;;;18.93;10.70;;;2.70;99.90;;;;;;5017224;28;20446;-83
2022/12/04 09:02:54;;;;;;;16.83;9.23;;;2.80;99.90;;;;;;5018301;28;20458;-84
2022/12/04 09:05:21;;;;;;;18.70;11.73;;;2.80;99.90;;;;;;5018417;28;20460;-83
2022/12/04 09:07:47;;;;;;;16.27;9.70;;;2.80;99.90;;;;;;5018952;28;20457;-82
2022/12/04 09:10:14;;;;;;;22.80;10.47;;;3.00;99.90;;;;;;5019710;28;20521;-84
2022/12/04 09:12:41;;;;;;;17.53;10.13;;;3.00;99.90;;;;;;5015108;28;20449;-84
2022/12/04 09:15:09;;;;;;;15.00;9.63;;;2.90;99.90;;;;;;5014472;28;20518;-84
2022/12/04 09:17:36;;;;;;;19.57;10.47;;;2.90;99.90;;;;;;5015102;28;20457;-82
2022/12/04 09:20:06;;;;;;;17.93;9.97;;;2.90;99.90;;;;;;5014390;28;20815;-84
2022/12/04 09:22:34;;;;;;;15.63;9.93;;;2.90;99.90;;;;;;5015316;28;20477;-84
2022/12/04 09:25:01;;;;;;;18.20;10.93;;;2.90;99.90;;;;;;5016273;28;20449;-84
2022/12/04 09:27:27;;;;;;;18.60;10.93;;;3.10;99.90;;;;;;5015191;28;21002;-84
2022/12/04 09:29:54;;;;;;;17.50;9.40;;;3.10;99.90;;;;;;5016423;28;20781;-84
2022/12/04 09:32:21;;;;;;;17.10;10.60;;;3.20;99.90;;;;;;5016295;28;20528;-84
2022/12/04 09:34:48;;;;;;;22.10;11.83;;;3.10;99.90;;;;;;5013514;28;20576;-83
2022/12/04 09:37:17;;;;;;;19.10;11.43;;;3.00;99.90;;;;;;5016172;28;20474;-84
2022/12/04 09:39:44;;;;;;;17.00;11.53;;;3.10;99.90;;;;;;5015760;28;20450;-84
2022/12/04 09:42:28;;;;;;;20.10;11.20;;;3.10;99.90;;;;;;5015972;28;20454;-84
2022/12/04 09:45:02;;;;;;;19.83;11.13;;;3.10;99.90;;;;;;5011202;28;20449;-85
2022/12/04 09:47:34;;;;;;;17.23;10.20;;;3.20;99.90;;;;;;5028794;28;20481;-84
2022/12/04 09:50:05;;;;;;;19.83;10.67;;;3.20;99.90;;;;;;5035518;28;20445;-84
2022/12/04 09:52:47;;;;;;;17.33;12.17;;;3.10;99.90;;;;;;5016254;28;20537;-84
2022/12/04 09:55:19;;;;;;;20.50;12.43;;;3.10;99.90;;;;;;5013786;28;20481;-83
2022/12/04 09:57:49;;;;;;;22.20;11.53;;;3.10;99.90;;;;;;5013082;28;20453;-85
2022/12/04 10:00:19;;;;;;;23.70;12.33;;;3.10;99.90;;;;;;5018280;28;20460;-84
2022/12/04 10:02:51;;;;;;;20.60;11.23;;;3.10;99.90;;;;;;5016036;28;20454;-84
2022/12/04 10:05:22;;;;;;;20.90;11.60;;;3.10;99.90;;;;;;5025634;28;20441;-84
2022/12/04 10:08:01;;;;;;;20.73;13.90;;;3.10;99.90;;;;;;5036577;28;20447;-83
2022/12/04 10:10:36;;;;;;;21.63;11.43;;;3.10;99.90;;;;;;5031977;28;20419;-83
2022/12/04 10:13:18;;;;;;;21.70;12.60;;;3.10;99.90;;;;;;5026748;28;20545;-83
2022/12/04 10:15:53;;;;;;;24.20;14.70;;;3.10;99.90;;;;;;5021753;28;20498;-83
2022/12/04 10:18:33;;;;;;;18.63;11.00;;;3.00;99.90;;;;;;5019976;28;20540;-83
2022/12/04 10:21:13;;;;;;;18.10;11.70;;;3.00;99.90;;;;;;5023299;28;20533;-82
2022/12/04 10:23:53;;;;;;;21.87;12.73;;;2.90;99.90;;;;;;5024336;28;20453;-83
2022/12/04 10:26:25;;;;;;;19.70;12.23;;;2.90;99.90;;;;;;5019218;28;20568;-83
2022/12/04 10:28:56;;;;;;;22.50;11.53;;;2.80;99.90;;;;;;5010471;28;20452;-84
2022/12/04 10:31:24;;;;;;;24.13;12.47;;;2.90;99.90;;;;;;5007111;28;20438;-84
2022/12/04 10:33:55;;;;;;;21.50;12.50;;;3.10;99.90;;;;;;5012583;28;20493;-83
2022/12/04 10:36:28;;;;;;;19.20;12.00;;;3.10;99.90;;;;;;5011721;28;20477;-84
2022/12/04 10:38:58;;;;;;;18.67;12.20;;;3.20;99.90;;;;;;4993685;28;20446;-83
2022/12/04 10:41:29;;;;;;;22.33;12.37;;;3.20;99.90;;;;;;4993822;28;20944;-83
2022/12/04 10:43:56;;;;;;;17.03;12.20;;;3.10;99.90;;;;;;4993023;28;20880;-83
2022/12/04 10:46:26;;;;;;;24.17;11.60;;;3.20;99.90;;;;;;5037290;23;21523;-81
2022/12/04 10:48:57;;;;;;;20.80;12.50;;;3.20;99.90;;;;;;5031123;28;21074;-81
2022/12/04 10:51:24;;;;;;;19.63;12.13;;;3.20;99.90;;;;;;5033086;28;20446;-81
2022/12/04 10:53:51;;;;;;;19.90;11.60;;;3.30;99.90;;;;;;5033344;28;20445;-82
2022/12/04 10:56:22;;;;;;;19.43;12.17;;;3.40;99.90;;;;;;5033603;28;20471;-80
2022/12/04 10:58:59;;;;;;;20.50;11.07;;;3.50;99.90;;;;;;5034836;28;20545;-81
2022/12/04 11:01:27;;;;;;;18.73;10.90;;;3.40;99.90;;;;;;5033361;28;20511;-80
2022/12/04 11:04:01;;;;;;;16.93;10.67;;;3.50;99.90;;;;;;5036941;28;20445;-80
2022/12/04 11:06:30;;;;;;;19.87;11.43;;;3.50;99.90;;;;;;5035597;28;20991;-79
2022/12/04 11:08:58;;;;;;;23.13;12.10;;;3.50;99.90;;;;;;5020405;28;20445;-79
2022/12/04 11:11:31;;;;;;;21.73;11.60;;;3.60;99.90;;;;;;5038307;28;20414;-80
2022/12/04 11:14:06;;;;;;;21.27;12.23;;;3.60;99.90;;;;;;5045363;28;20772;-80
2022/12/04 11:16:37;;;;;;;19.10;11.17;;;3.50;99.90;;;;;;5047391;28;20855;-80
2022/12/04 11:19:19;;;;;;;16.60;10.80;;;3.60;99.90;;;;;;5046260;28;20416;-81
2022/12/04 11:21:46;;;;;;;16.90;11.33;;;3.60;99.90;;;;;;5033363;28;20448;-81
2022/12/04 11:24:21;;;;;;;19.30;11.47;;;3.60;99.90;;;;;;5032847;28;20440;-81
2022/12/04 11:26:51;;;;;;;19.17;10.10;;;3.60;99.90;;;;;;5029383;28;20542;-81
2022/12/04 11:29:20;;;;;;;18.17;10.70;;;3.60;99.90;;;;;;5034983;28;20449;-83
2022/12/04 11:31:51;;;;;;;23.60;12.43;;;3.70;99.90;;;;;;5034342;28;20456;-78
2022/12/04 11:34:21;;;;;;;18.10;10.83;;;3.60;99.90;;;;;;5037001;28;20564;-78
2022/12/04 11:36:53;;;;;;;22.87;11.07;;;3.60;99.90;;;;;;5038695;28;20467;-79
2022/12/04 11:39:29;;;;;;;19.03;12.07;;;3.60;99.90;;;;;;5041851;28;20536;-79
2022/12/04 11:42:05;;;;;;;17.00;11.07;;;3.60;99.90;;;;;;5037317;28;20535;-79
2022/12/04 11:44:34;;;;;;;23.20;12.80;;;3.60;99.90;;;;;;5043417;28;20443;-81
2022/12/04 11:47:03;;;;;;;16.60;10.00;;;3.70;99.90;;;;;;5042430;28;20984;-80
2022/12/04 11:49:31;;;;;;;17.90;11.63;;;3.80;99.90;;;;;;5034274;28;20489;-79
2022/12/04 11:52:16;;;;;;;21.23;11.17;;;3.70;99.90;;;;;;5035318;28;20456;-78
2022/12/04 11:54:55;;;;;;;23.70;11.40;;;3.70;99.90;;;;;;5041591;28;20476;-80
2022/12/04 11:57:31;;;;;;;21.20;12.33;;;3.70;99.90;;;;;;5029679;28;20571;-80
2022/12/04 12:00:11;;;;;;;21.93;11.27;;;3.70;99.90;;;;;;5034440;28;20444;-79
2022/12/04 12:02:49;;;;;;;19.70;11.37;;;3.50;99.90;;;;;;5032928;28;20459;-80
2022/12/04 12:05:32;;;;;;;18.37;11.03;;;3.60;99.90;;;;;;5031933;28;20452;-79
2022/12/04 12:08:11;;;;;;;19.17;11.03;;;3.50;99.90;;;;;;5032733;28;20486;-80
2022/12/04 12:10:46;;;;;;;16.97;11.47;;;3.60;99.90;;;;;;5033514;28;20452;-81
2022/12/04 12:13:24;;;;;;;18.40;11.20;;;3.60;99.90;;;;;;5031872;28;20451;-78
2022/12/04 12:16:00;;;;;;;21.70;12.07;;;3.50;99.90;;;;;;5027954;28;20516;-78
2022/12/04 12:19:01;;;;;;;19.90;11.87;;;3.60;99.90;;;;;;5035069;28;20429;-79
2022/12/04 12:21:31;;;;;;;18.73;11.73;;;3.60;99.90;;;;;;5033725;28;20540;-79
2022/12/04 12:24:14;;;;;;;21.07;12.83;;;3.60;99.90;;;;;;5039679;28;20454;-79
2022/12/04 12:26:50;;;;;;;15.83;10.20;;;3.70;99.90;;;;;;5035746;28;20532;-78
2022/12/04 12:29:35;;;;;;;18.40;11.63;;;3.60;99.90;;;;;;5035427;28;20452;-78
2022/12/04 12:32:16;;;;;;;18.97;11.83;;;3.80;99.90;;;;;;5027902;28;20452;-78
2022/12/04 12:34:45;;;;;;;17.80;11.30;;;3.70;99.90;;;;;;5040881;28;20479;-78
2022/12/04 12:37:21;;;;;;;18.80;11.50;;;3.80;99.90;;;;;;5042860;28;20463;-78
2022/12/04 12:39:56;;;;;;;17.03;10.90;;;3.80;99.90;;;;;;5047956;28;20812;-78
2022/12/04 12:42:28;;;;;;;17.17;10.80;;;3.80;99.90;;;;;;5029457;28;20457;-78
2022/12/04 12:45:02;;;;;;;18.07;11.03;;;3.80;99.90;;;;;;5033416;28;20524;-80
2022/12/04 12:47:35;;;;;;;18.00;10.70;;;3.80;99.90;;;;;;5037882;28;20582;-79
2022/12/04 12:50:06;;;;;;;16.43;10.30;;;3.70;99.90;;;;;;5034042;28;20509;-83
2022/12/04 12:52:38;;;;;;;17.40;10.90;;;3.80;99.90;;;;;;5047293;28;20440;-81
2022/12/04 12:55:15;;;;;;;17.80;11.00;;;3.70;99.90;;;;;;5042426;28;20469;-81
2022/12/04 12:57:47;;;;;;;12.77;8.97;;;3.70;99.90;;;;;;5042408;28;20545;-81
2022/12/04 13:00:18;;;;;;;14.47;10.60;;;3.70;99.90;;;;;;5051898;28;20476;-80
2022/12/04 13:02:50;;;;;;;16.30;9.97;;;3.80;99.90;;;;;;5042792;28;20874;-81
2022/12/04 13:05:24;;;;;;;13.73;9.50;;;3.80;99.90;;;;;;5055277;28;20792;-81
2022/12/04 13:07:56;;;;;;;13.10;8.83;;;3.80;99.90;;;;;;5051183;28;20449;-81